Archival Weather

Longyear

Longyear, Svalbard (ENSB)

Report from: Tuesday, September 19, 2023 10:20 PM UTC
Current time: Tuesday, July 16, 2024 2:44 PM UTC

Current weather – Weather history – Daily summaries
Weather forecast

Temperature-3.0°C (26.6°F)
Dew point-6.0°C (21.2°F)
Winds 2 kts (1 m/s, 2.3 mph) Vrb
Winds variableWinds variable
Clouds Sky clear
Altimeter30.00 in.Hg (1016 mB)
Relative humidity80 %
Density altitude-2,246 ft. (-685 m)
Remarks Ceiling and visibility OK
Flight conditions Visual Meteorological Conditions
Raw dataENSB 192220Z VRB02KT CAVOK M03/M06 Q1016 RMK WIND 1400FT 00000KT
An error has occurred. This application may no longer respond until reloaded. Reload 🗙